Nuuk Airport

KL  EN  DA
ASIAQ
Weather Now GREENLAND SURVEY
Updated [WGT/WGST] Temperature [°C] Wind [m/s] Air pressure [hPa] Relative humidity [%] Precipitation [mm]
Present Wind chill Speed Max
30.11 17:00-5,7-14,810,7 ⇙14,8988620,0
30.11 16:00-5,6-13,98,6 ⇓10,9987690,0
30.11 15:00-5,5-13,37,7 ⇓10,6987680,0
30.11 14:00-5,4-12,97,1 ⇓9,9986680,0
30.11 13:00-5,0-12,67,6 ⇓9,0987640,0
30.11 12:00-5,2-12,56,9 ⇓8,3988720,0
30.11 11:00-5,3-11,75,2 ⇓6,4989700,0
30.11 10:00-4,7-11,76,5 ⇓7,8989740,0
30.11 09:00-5,0-11,14,9 ⇙6,5990690,0
30.11 08:00-4,8-11,15,3 ⇐6,4991690,0
30.11 07:00-4,3-10,45,1 ⇐6,4992680,0
30.11 06:00-4,0-10,55,9 ⇐6,9993660,0
30.11 05:00-3,9-10,86,7 ⇐8,1993670,0
30.11 04:00-3,1-9,35,8 ⇐7,6994610,0
30.11 03:00-2,3-8,05,4 ⇐6,9995610,0
30.11 02:00-2,5-8,76,1 ⇐6,7996600,0
30.11 01:00-2,1-5,02,1 ⇙3,2997630,0
30.11 00:00-1,0-3,62,0 ⇖4,1998560,0
29.11 23:00-1,2-5,84,0 ⇖6,3998600,0
29.11 22:00-1,2-6,14,5 ⇖6,4999630,0
29.11 21:00-1,3-7,46,5 ⇑9,2999680,1
29.11 20:00-1,3-8,18,3 ⇖11,6999680,0
29.11 19:00-1,4-8,07,6 ⇑10,4999720,0
29.11 18:00-1,4-8,99,9 ⇖13,5999710,0
29.11 17:00-1,4-8,89,7 ⇖13,6999760,0
Position: (64.2,-51.683333)

[Back]